Time;durP1;ratioP1;P1;durP2;ratioP2;P2;SDS_P1;SDS_P2;PMS_P1;PMS_P2;Temp;Humidity;BMP_temperature;BMP_pressure;BME280_temperature;BME280_humidity;BME280_pressure;Samples;Min_cycle;Max_cycle;Signal;HPM_P1;HPM_P2
2023/02/08 00:00:47;;;;;;;37.28;19.05;;;;;;;-2.20;100.00;104001.72;7395975;19;20197;-57
2023/02/08 00:03:17;;;;;;;38.10;18.10;;;;;;;-2.17;100.00;104002.19;7398062;19;20485;-59
2023/02/08 00:05:46;;;;;;;39.20;18.92;;;;;;;-2.26;100.00;103990.69;7392500;19;20563;-59
2023/02/08 00:08:16;;;;;;;43.35;20.20;;;;;;;-2.48;100.00;103987.59;7398848;19;20146;-59
2023/02/08 00:10:45;;;;;;;42.85;19.85;;;;;;;-2.55;100.00;103984.84;7395173;19;20194;-57
2023/02/08 00:13:17;;;;;;;41.80;19.85;;;;;;;-1.95;100.00;103974.00;7397947;19;20214;-59
2023/02/08 00:15:48;;;;;;;38.47;19.50;;;;;;;-1.63;100.00;103962.50;7394850;19;20182;-57
2023/02/08 00:18:17;;;;;;;39.55;18.13;;;;;;;-1.57;100.00;103965.91;7398940;19;20135;-54
2023/02/08 00:20:47;;;;;;;38.85;19.17;;;;;;;-1.45;100.00;103956.59;7394497;19;20537;-56
2023/02/08 00:23:17;;;;;;;39.65;17.90;;;;;;;-1.20;100.00;103959.13;7397624;19;20142;-55
2023/02/08 00:25:46;;;;;;;38.90;18.95;;;;;;;-1.18;100.00;103965.34;7392569;19;20190;-54
2023/02/08 00:28:19;;;;;;;36.72;18.33;;;;;;;-1.43;100.00;103969.50;7397277;19;20142;-55
2023/02/08 00:30:50;;;;;;;35.95;17.73;;;;;;;-1.56;100.00;103974.41;7389069;19;20194;-54
2023/02/08 00:33:19;;;;;;;38.22;17.15;;;;;;;-1.52;100.00;103972.56;7393647;19;20142;-58
2023/02/08 00:35:49;;;;;;;35.35;17.92;;;;;;;-1.06;100.00;103956.94;7390209;19;20190;-56
2023/02/08 00:38:18;;;;;;;36.05;18.30;;;;;;;-1.03;100.00;103959.91;7392043;19;20143;-56
2023/02/08 00:40:47;;;;;;;37.50;18.10;;;;;;;-1.20;100.00;103964.19;7388634;19;20186;-58
2023/02/08 00:43:19;;;;;;;34.53;15.90;;;;;;;-1.20;100.00;103959.13;7392609;19;20146;-57
2023/02/08 00:45:49;;;;;;;36.03;16.45;;;;;;;-1.32;100.00;103968.47;7388719;19;20190;-56
2023/02/08 00:48:18;;;;;;;68.18;27.45;;;;;;;-0.11;100.00;103939.41;7391407;19;20153;-54
2023/02/08 00:50:58;;;;;;;53.70;24.40;;;;;;;-0.35;100.00;103949.69;7391364;19;20198;-53
2023/02/08 00:53:28;;;;;;;66.68;32.13;;;;;;;-0.19;100.00;103962.84;7394330;19;20179;-58
2023/02/08 00:55:58;;;;;;;53.15;25.55;;;;;;;-0.31;100.00;103959.56;7391738;19;20198;-53
2023/02/08 00:58:30;;;;;;;37.70;18.15;;;;;;;-0.49;100.00;103971.53;7394784;19;20126;-58
2023/02/08 01:00:59;;;;;;;31.77;16.85;;;;;;;-0.91;100.00;103985.16;7391164;19;20661;-56
2023/02/08 01:03:29;;;;;;;32.50;16.83;;;;;;;-0.89;100.00;103984.66;7394008;19;20174;-56
2023/02/08 01:06:02;;;;;;;35.47;17.88;;;;;;;-1.14;100.00;103991.34;7390159;19;20190;-56
2023/02/08 01:08:31;;;;;;;35.47;16.05;;;;;;;-1.70;100.00;103997.78;7396225;19;20158;-56
2023/02/08 01:11:05;;;;;;;34.85;18.05;;;;;;;-1.97;100.00;104000.69;7392519;19;20190;-56
2023/02/08 01:13:38;;;;;;;31.60;16.52;;;;;;;-1.93;100.00;103993.78;7395398;19;20174;-58
2023/02/08 01:16:09;;;;;;;32.03;16.73;;;;;;;-1.74;100.00;103987.91;7393151;19;20186;-55
2023/02/08 01:18:39;;;;;;;34.75;18.30;;;;;;;-1.67;100.00;103990.63;7396616;19;20190;-53
2023/02/08 01:21:11;;;;;;;34.20;17.95;;;;;;;-1.92;100.00;103990.56;7392676;19;20209;-57
2023/02/08 01:23:41;;;;;;;34.85;16.48;;;;;;;-2.06;100.00;103985.09;7395077;19;20163;-56
2023/02/08 01:26:11;;;;;;;37.03;17.90;;;;;;;-2.04;100.00;103983.72;7391406;19;20190;-57
2023/02/08 01:28:43;;;;;;;37.60;17.70;;;;;;;-2.25;100.00;103971.38;7393360;19;20162;-56
2023/02/08 01:31:15;;;;;;;30.80;17.00;;;;;;;-2.29;100.00;103964.03;7388966;19;20190;-54
2023/02/08 01:33:45;;;;;;;37.38;18.27;;;;;;;-2.37;100.00;103963.84;7390305;19;20166;-59
2023/02/08 01:36:15;;;;;;;36.88;18.33;;;;;;;-2.42;100.00;103952.13;7388550;19;20219;-56
2023/02/08 01:38:45;;;;;;;35.10;18.10;;;;;;;-2.43;100.00;103952.84;7391686;19;20603;-54
2023/02/08 01:41:17;;;;;;;34.25;18.00;;;;;;;-2.37;100.00;103956.25;7388947;19;20560;-55
2023/02/08 01:44:08;;;;;;;36.90;16.00;;;;;;;-2.64;100.00;103956.59;7390510;19;20166;-56
2023/02/08 01:46:38;;;;;;;32.35;17.52;;;;;;;-2.49;100.00;103962.06;7390311;19;20182;-56
2023/02/08 01:49:11;;;;;;;36.40;17.33;;;;;;;-2.55;100.00;103959.56;7389301;19;20130;-56
2023/02/08 01:51:43;;;;;;;33.00;16.40;;;;;;;-2.92;100.00;103959.19;7391603;19;20131;-55
2023/02/08 01:54:14;;;;;;;35.78;16.90;;;;;;;-3.08;100.00;103950.97;7387452;19;20163;-55
2023/02/08 01:56:46;;;;;;;32.78;16.75;;;;;;;-3.18;100.00;103954.63;7391275;19;20142;-58
2023/02/08 01:59:21;;;;;;;37.63;17.95;;;;;;;-3.05;100.00;103948.88;7388166;19;20198;-59
2023/02/08 02:01:53;;;;;;;34.35;17.13;;;;;;;-2.85;100.00;103939.19;7394123;19;20139;-54
2023/02/08 02:04:22;;;;;;;38.28;18.10;;;;;;;-2.98;100.00;103941.50;7387174;19;20205;-57
2023/02/08 02:06:55;;;;;;;36.97;17.90;;;;;;;-3.26;100.00;103939.97;7389750;19;20139;-54
2023/02/08 02:09:28;;;;;;;35.53;17.23;;;;;;;-3.00;100.00;103935.31;7388531;19;20565;-53
2023/02/08 02:11:57;;;;;;;31.60;16.42;;;;;;;-3.18;100.00;103944.53;7391393;19;20134;-59
2023/02/08 02:14:30;;;;;;;37.92;18.20;;;;;;;-2.71;100.00;103936.16;7387010;19;20253;-59
2023/02/08 02:17:01;;;;;;;33.42;17.67;;;;;;;-2.81;100.00;103932.97;7390862;19;20593;-57
2023/02/08 02:19:38;;;;;;;36.72;16.80;;;;;;;-3.30;100.00;103937.66;7387652;19;20661;-57
2023/02/08 02:22:17;;;;;;;41.22;16.85;;;;;;;-3.57;100.00;103937.91;7394583;19;20142;-54
2023/02/08 02:25:09;;;;;;;42.58;18.52;;;;;;;-3.76;100.00;103932.59;7385864;19;20194;-58
2023/02/08 02:28:02;;;;;;;37.42;16.73;;;;;;;-3.42;100.00;103922.53;7388305;19;20134;-57
2023/02/08 02:30:47;;;;;;;33.67;16.70;;;;;;;-3.47;100.00;103933.56;7386623;19;20205;-57
2023/02/08 02:33:37;;;;;;;36.28;17.48;;;;;;;-3.70;100.00;103932.63;7389827;19;20135;-54
2023/02/08 02:36:14;;;;;;;35.72;16.85;;;;;;;-3.73;100.00;103943.19;7385729;19;20190;-53
2023/02/08 02:38:53;;;;;;;38.72;17.55;;;;;;;-3.18;100.00;103936.94;7393675;19;20139;-55
2023/02/08 02:44:18;;;;;;;36.55;16.98;;;;;;;-2.86;100.00;103934.84;7389941;19;20170;-56
2023/02/08 02:46:51;;;;;;;32.92;16.77;;;;;;;-3.07;100.00;103935.09;7392285;19;20161;-55
2023/02/08 02:49:27;;;;;;;37.58;17.55;;;;;;;-3.10;100.00;103934.63;7389066;19;20229;-57
2023/02/08 02:52:00;;;;;;;34.90;16.65;;;;;;;-3.18;100.00;103939.47;7393744;19;20629;-56
2023/02/08 02:54:35;;;;;;;35.63;17.30;;;;;;;-3.13;100.00;103942.72;7386811;19;20198;-59
2023/02/08 02:57:06;;;;;;;36.13;16.65;;;;;;;-3.32;100.00;103945.03;7394048;19;20157;-58
2023/02/08 02:59:37;;;;;;;39.92;18.83;;;;;;;-3.52;100.00;103939.50;7388883;19;20213;-59
2023/02/08 03:02:07;;;;;;;35.58;18.45;;;;;;;-3.75;100.00;103953.72;7393761;19;20139;-59
2023/02/08 03:04:54;;;;;;;38.13;18.52;;;;;;;-3.59;100.00;103947.75;7387040;19;20206;-59
2023/02/08 03:07:38;;;;;;;39.25;19.27;;;;;;;-3.41;100.00;103937.00;7391080;19;20146;-57
2023/02/08 03:10:17;;;;;;;36.25;17.60;;;;;;;-3.69;100.00;103945.47;7389137;19;20194;-58
2023/02/08 03:12:55;;;;;;;36.47;17.52;;;;;;;-3.77;100.00;103940.88;7400297;19;20134;-58
2023/02/08 03:15:30;;;;;;;33.28;15.63;;;;;;;-3.81;100.00;103944.53;7393732;19;20208;-55
2023/02/08 03:18:07;;;;;;;38.03;18.02;;;;;;;-3.38;100.00;103944.09;7400307;19;20158;-59
2023/02/08 03:20:41;;;;;;;39.13;18.10;;;;;;;-3.27;100.00;103949.13;7395211;19;20208;-59
2023/02/08 03:23:16;;;;;;;45.67;18.77;;;;;;;-3.36;100.00;103949.38;7400299;19;20140;-59
2023/02/08 03:25:51;;;;;;;41.95;17.90;;;;;;;-3.67;100.00;103954.22;7394327;19;20220;-57
2023/02/08 03:28:24;;;;;;;35.20;17.45;;;;;;;-3.35;100.00;103951.22;7396414;19;20488;-59
2023/02/08 03:31:00;;;;;;;40.80;17.88;;;;;;;-3.22;100.00;103947.31;7393677;19;20224;-56
2023/02/08 03:33:34;;;;;;;39.33;17.98;;;;;;;-3.44;100.00;103950.78;7398259;19;20139;-59
2023/02/08 03:36:10;;;;;;;40.95;17.23;;;;;;;-3.63;100.00;103954.66;7394417;19;20190;-59
2023/02/08 03:38:42;;;;;;;36.00;17.58;;;;;;;-3.71;100.00;103953.47;7399215;19;20134;-54
2023/02/08 03:41:14;;;;;;;37.95;17.38;;;;;;;-3.57;100.00;103945.47;7395456;19;20186;-59
2023/02/08 03:43:46;;;;;;;37.20;17.52;;;;;;;-3.64;100.00;103952.81;7397874;19;20611;-58
2023/02/08 03:46:18;;;;;;;36.80;17.65;;;;;;;-3.72;100.00;103947.53;7395532;19;20186;-58
2023/02/08 03:48:51;;;;;;;36.92;17.88;;;;;;;-4.03;100.00;103947.94;7399523;19;20143;-59
2023/02/08 03:51:24;;;;;;;36.40;17.50;;;;;;;-4.10;100.00;103943.56;7397441;19;20182;-59
2023/02/08 03:53:55;;;;;;;38.75;18.85;;;;;;;-4.12;100.00;103949.03;7397540;19;20171;-58
2023/02/08 03:56:30;;;;;;;38.72;17.73;;;;;;;-3.72;100.00;103945.00;7397346;19;20551;-59
2023/02/08 03:59:02;;;;;;;41.63;19.55;;;;;;;-3.68;100.00;103947.28;7396614;19;20165;-54
2023/02/08 04:01:35;;;;;;;46.03;18.23;;;;;;;-3.45;100.00;103939.75;7397628;19;20677;-55
2023/02/08 04:04:05;;;;;;;42.05;19.38;;;;;;;-3.43;100.00;103939.97;7394951;19;20178;-57
2023/02/08 04:06:37;;;;;;;36.22;17.00;;;;;;;-3.37;100.00;103943.41;7396647;19;20146;-57
2023/02/08 04:09:07;;;;;;;37.40;17.95;;;;;;;-3.49;100.00;103945.00;7396616;19;20629;-56
2023/02/08 04:11:36;;;;;;;41.13;18.45;;;;;;;-3.69;100.00;103949.59;7398066;19;20142;-59
2023/02/08 04:14:06;;;;;;;35.45;17.33;;;;;;;-2.83;100.00;103936.91;7394855;19;20174;-55
2023/02/08 04:16:35;;;;;;;37.85;18.02;;;;;;;-2.37;100.00;103927.53;7397439;19;20819;-58
2023/02/08 04:19:05;;;;;;;40.83;19.55;;;;;;;-2.76;100.00;103932.06;7396679;19;20150;-57
2023/02/08 04:21:37;;;;;;;44.30;19.38;;;;;;;-3.24;100.00;103933.50;7396899;19;20138;-52
2023/02/08 04:24:07;;;;;;;40.50;18.25;;;;;;;-3.42;100.00;103942.75;7394096;19;20517;-58
2023/02/08 04:26:37;;;;;;;43.85;18.20;;;;;;;-3.51;100.00;103946.41;7396838;19;20686;-57
2023/02/08 04:29:06;;;;;;;47.13;17.95;;;;;;;-2.83;100.00;103925.16;7392688;19;20521;-58
2023/02/08 04:31:36;;;;;;;36.15;18.52;;;;;;;-2.77;100.00;103930.22;7396743;19;20134;-58
2023/02/08 04:34:05;;;;;;;42.10;19.08;;;;;;;-2.58;100.00;103927.16;7393956;19;20685;-59
2023/02/08 04:36:37;;;;;;;37.22;17.55;;;;;;;-2.60;100.00;103922.56;7396276;19;20138;-56
2023/02/08 04:39:07;;;;;;;42.33;19.02;;;;;;;-2.46;100.00;103919.53;7395640;19;20476;-56
2023/02/08 04:41:36;;;;;;;46.38;20.35;;;;;;;-2.14;100.00;103913.13;7396893;19;20131;-57
2023/02/08 04:44:06;;;;;;;40.08;19.58;;;;;;;-2.45;100.00;103916.28;7393421;19;20174;-59
2023/02/08 04:46:35;;;;;;;44.88;19.20;;;;;;;-2.43;100.00;103919.94;7396874;19;20157;-57
2023/02/08 04:49:05;;;;;;;42.90;19.05;;;;;;;-2.53;100.00;103916.78;7393628;19;20139;-55
2023/02/08 04:51:37;;;;;;;40.38;18.38;;;;;;;-2.58;100.00;103924.63;7396328;19;20142;-58
2023/02/08 04:54:07;;;;;;;50.97;20.15;;;;;;;-2.48;100.00;103923.41;7393121;19;20193;-55
2023/02/08 04:56:37;;;;;;;47.70;19.05;;;;;;;-2.60;100.00;103928.53;7396354;19;20137;-57
2023/02/08 04:59:06;;;;;;;41.67;21.20;;;;;;;-2.53;100.00;103932.88;7393699;19;20162;-59
2023/02/08 05:01:36;;;;;;;43.22;18.95;;;;;;;-2.54;100.00;103932.66;7395715;19;20169;-55
2023/02/08 05:04:06;;;;;;;40.85;18.35;;;;;;;-2.49;100.00;103924.13;7393409;19;20198;-51
2023/02/08 05:06:38;;;;;;;44.47;18.95;;;;;;;-2.77;100.00;103923.53;7396202;19;20146;-57
2023/02/08 05:09:08;;;;;;;48.20;20.25;;;;;;;-2.48;100.00;103920.91;7392953;19;20158;-57
2023/02/08 05:11:38;;;;;;;43.90;20.75;;;;;;;-2.74;100.00;103926.53;7395789;19;20153;-58
2023/02/08 05:14:07;;;;;;;38.40;19.50;;;;;;;-2.58;100.00;103917.03;7392862;19;20175;-56
2023/02/08 05:16:37;;;;;;;37.17;18.20;;;;;;;-2.66;100.00;103915.00;7395326;19;20146;-55
2023/02/08 05:19:06;;;;;;;45.05;21.65;;;;;;;-2.48;100.00;103918.38;7393832;19;20139;-56
2023/02/08 05:21:38;;;;;;;39.00;18.40;;;;;;;-2.71;100.00;103926.06;7395319;19;20130;-58
2023/02/08 05:24:11;;;;;;;44.03;19.20;;;;;;;-2.96;100.00;103919.94;7392532;19;20205;-58
2023/02/08 05:26:40;;;;;;;46.42;19.60;;;;;;;-2.92;100.00;103914.63;7395109;19;20212;-52
2023/02/08 05:29:10;;;;;;;37.47;17.30;;;;;;;-2.65;100.00;103921.91;7391363;19;20169;-55
2023/02/08 05:31:40;;;;;;;44.72;20.30;;;;;;;-2.49;100.00;103914.94;7394983;19;20142;-58
2023/02/08 05:34:09;;;;;;;45.03;20.17;;;;;;;-2.50;100.00;103917.22;7390831;19;20271;-58
2023/02/08 05:36:41;;;;;;;46.00;20.23;;;;;;;-2.61;100.00;103909.00;7394609;19;20134;-59
2023/02/08 05:39:11;;;;;;;45.78;19.55;;;;;;;-2.80;100.00;103909.53;7393341;19;20151;-57
2023/02/08 05:41:40;;;;;;;42.30;19.58;;;;;;;-2.87;100.00;103907.72;7394874;19;20143;-55
2023/02/08 05:44:10;;;;;;;39.47;18.90;;;;;;;-2.75;100.00;103913.66;7392099;19;20182;-53
2023/02/08 05:46:39;;;;;;;43.78;20.48;;;;;;;-2.42;100.00;103906.59;7394684;19;20131;-56
2023/02/08 05:49:09;;;;;;;44.05;20.45;;;;;;;-2.32;100.00;103903.78;7391890;19;20158;-53
2023/02/08 05:51:38;;;;;;;43.30;19.65;;;;;;;-2.71;100.00;103910.88;7394413;19;20181;-57
2023/02/08 05:54:10;;;;;;;44.60;21.00;;;;;;;-2.74;100.00;103903.78;7391921;19;20171;-58
2023/02/08 05:56:40;;;;;;;43.80;20.75;;;;;;;-2.74;100.00;103911.34;7394594;19;20490;-56
2023/02/08 05:59:11;;;;;;;50.78;22.42;;;;;;;-2.95;100.00;103901.53;7392208;19;20158;-56
2023/02/08 06:01:41;;;;;;;49.17;21.25;;;;;;;-2.79;100.00;103907.22;7394175;19;20146;-55
2023/02/08 06:04:10;;;;;;;50.90;22.10;;;;;;;-2.93;100.00;103907.72;7391041;19;21953;-59
2023/02/08 06:06:40;;;;;;;47.97;21.27;;;;;;;-2.91;100.00;103907.97;7394178;19;20629;-58
2023/02/08 06:09:12;;;;;;;54.47;24.00;;;;;;;-2.96;100.00;103906.38;7390941;19;20161;-58
2023/02/08 06:11:41;;;;;;;52.10;21.95;;;;;;;-3.06;100.00;103919.25;7394462;19;20606;-58
2023/02/08 06:14:11;;;;;;;51.90;22.17;;;;;;;-2.85;100.00;103917.38;7391172;19;20669;-57
2023/02/08 06:16:40;;;;;;;51.33;21.20;;;;;;;-2.95;100.00;103933.47;7393833;19;20139;-53
2023/02/08 06:19:10;;;;;;;49.70;21.13;;;;;;;-3.34;100.00;103941.34;7392482;19;20135;-55
2023/02/08 06:21:39;;;;;;;50.45;22.67;;;;;;;-3.50;100.00;103935.59;7393875;19;20145;-57
2023/02/08 06:24:12;;;;;;;49.75;22.15;;;;;;;-3.01;100.00;103929.38;7390870;19;20200;-54
2023/02/08 06:26:41;;;;;;;48.75;20.77;;;;;;;-3.05;100.00;103929.59;7394155;19;20157;-56
2023/02/08 06:29:11;;;;;;;44.22;20.15;;;;;;;-3.00;100.00;103930.25;7389427;19;20147;-59
2023/02/08 06:31:41;;;;;;;47.33;21.08;;;;;;;-3.22;100.00;103929.63;7393762;19;20146;-55
2023/02/08 06:34:10;;;;;;;46.55;22.40;;;;;;;-3.13;100.00;103927.56;7390212;19;20170;-55
2023/02/08 06:36:40;;;;;;;47.25;21.23;;;;;;;-3.07;100.00;103922.47;7393063;19;20161;-51
2023/02/08 06:39:12;;;;;;;50.40;20.60;;;;;;;-2.72;100.00;103914.13;7391463;19;20146;-53
2023/02/08 06:41:41;;;;;;;48.20;22.27;;;;;;;-2.81;100.00;103918.75;7393371;19;20150;-55
2023/02/08 06:44:11;;;;;;;45.35;20.90;;;;;;;-2.86;100.00;103910.47;7389721;19;20174;-56
2023/02/08 06:46:40;;;;;;;52.88;22.52;;;;;;;-3.00;100.00;103920.16;7395499;19;20139;-57
2023/02/08 06:49:10;;;;;;;58.33;23.10;;;;;;;-2.95;100.00;103918.31;7397072;19;20134;-57
2023/02/08 06:51:39;;;;;;;51.88;22.95;;;;;;;-2.97;100.00;103913.03;7400538;19;20523;-56
2023/02/08 06:54:11;;;;;;;53.42;23.40;;;;;;;-3.12;100.00;103922.69;7394232;19;20174;-57
2023/02/08 06:56:42;;;;;;;53.60;23.25;;;;;;;-2.94;100.00;103922.66;7400360;19;20142;-51
2023/02/08 06:59:11;;;;;;;55.08;22.40;;;;;;;-2.94;100.00;103921.06;7395185;19;20138;-54
2023/02/08 07:01:41;;;;;;;56.50;25.13;;;;;;;-2.41;100.00;103908.44;7399745;19;20154;-54
2023/02/08 07:04:10;;;;;;;49.45;22.40;;;;;;;-2.19;100.00;103903.97;7396828;19;20189;-55
2023/02/08 07:06:40;;;;;;;88.55;35.47;;;;;;;-2.16;100.00;103909.44;7399748;19;20142;-60
2023/02/08 07:09:12;;;;;;;82.55;33.83;;;;;;;-2.43;100.00;103930.06;7396888;19;20161;-55
2023/02/08 07:11:41;;;;;;;69.32;30.80;;;;;;;-2.51;100.00;103928.06;7399858;19;20230;-58
2023/02/08 07:14:13;;;;;;;69.30;29.33;;;;;;;-2.67;100.00;103919.84;7396685;19;20170;-57
2023/02/08 07:16:43;;;;;;;67.40;27.15;;;;;;;-3.00;100.00;103927.75;7400013;19;20504;-58
2023/02/08 07:19:12;;;;;;;65.68;27.33;;;;;;;-3.05;100.00;103926.13;7397203;19;20135;-56
2023/02/08 07:21:42;;;;;;;56.72;25.40;;;;;;;-3.03;100.00;103928.19;7399370;19;20143;-55
2023/02/08 07:24:14;;;;;;;57.17;25.70;;;;;;;-3.21;100.00;103933.06;7395046;19;20203;-57
2023/02/08 07:26:43;;;;;;;77.60;32.70;;;;;;;-2.63;100.00;103935.66;7399150;19;20135;-56
2023/02/08 07:29:13;;;;;;;361.58;148.25;;;;;;;-1.16;100.00;103921.78;7394593;19;20471;-55
2023/02/08 07:31:42;;;;;;;61.13;26.70;;;;;;;-1.77;100.00;103931.06;7399161;19;20196;-58
2023/02/08 07:34:12;;;;;;;67.07;28.23;;;;;;;-1.60;100.00;103929.09;7395880;19;20853;-56
2023/02/08 07:36:41;;;;;;;61.53;25.85;;;;;;;-1.61;100.00;103933.25;7398882;19;20127;-52
2023/02/08 07:39:13;;;;;;;92.20;37.35;;;;;;;-1.71;100.00;103943.69;7397112;19;21193;-60
2023/02/08 07:41:42;;;;;;;73.38;30.35;;;;;;;-1.56;100.00;103941.50;7398716;19;20142;-57
2023/02/08 07:44:12;;;;;;;54.72;23.15;;;;;;;-1.22;100.00;103944.63;7395680;19;20192;-56
2023/02/08 07:46:42;;;;;;;57.67;22.75;;;;;;;-1.91;100.00;103950.94;7399071;19;20498;-56
2023/02/08 07:49:11;;;;;;;52.92;23.95;;;;;;;-2.53;100.00;103958.16;7396006;19;20499;-53
2023/02/08 07:51:41;;;;;;;61.85;23.13;;;;;;;-2.96;100.00;103952.78;7398502;19;20135;-56
2023/02/08 07:54:10;;;;;;;57.17;25.55;;;;;;;-3.17;100.00;103951.41;7394289;19;20178;-55
2023/02/08 07:56:42;;;;;;;60.00;25.55;;;;;;;-3.30;100.00;103952.81;7397206;19;20152;-54
2023/02/08 07:59:13;;;;;;;57.95;23.33;;;;;;;-3.44;100.00;103949.13;7396045;19;20131;-54
2023/02/08 08:01:43;;;;;;;56.55;24.70;;;;;;;-3.69;100.00;103958.06;7398187;19;20142;-54
2023/02/08 08:04:12;;;;;;;54.35;23.40;;;;;;;-3.55;100.00;103944.09;7394931;19;20174;-53
2023/02/08 08:06:42;;;;;;;57.75;23.85;;;;;;;-3.23;100.00;103944.56;7398098;19;20170;-57
2023/02/08 08:09:11;;;;;;;60.60;25.15;;;;;;;-3.01;100.00;103933.50;7395950;19;20171;-58
2023/02/08 08:11:43;;;;;;;53.72;22.90;;;;;;;-3.03;100.00;103933.25;7397734;19;20142;-57
2023/02/08 08:14:12;;;;;;;66.10;26.85;;;;;;;-2.91;100.00;103935.75;7394706;19;20175;-57
2023/02/08 08:16:42;;;;;;;82.15;34.88;;;;;;;-2.68;100.00;103921.44;7398046;19;20147;-58
2023/02/08 08:19:12;;;;;;;61.83;26.20;;;;;;;-2.92;100.00;103934.84;7394934;19;20131;-59
2023/02/08 08:21:41;;;;;;;70.07;27.98;;;;;;;-2.80;100.00;103934.81;7397446;19;20614;-54
2023/02/08 08:24:11;;;;;;;60.53;24.35;;;;;;;-2.82;100.00;103927.00;7394203;19;20170;-55
2023/02/08 08:26:43;;;;;;;63.22;26.38;;;;;;;-2.90;100.00;103922.44;7396957;19;20138;-56
2023/02/08 08:29:13;;;;;;;79.82;29.75;;;;;;;-2.72;100.00;103919.19;7395227;19;20135;-56
2023/02/08 08:31:44;;;;;;;59.88;22.92;;;;;;;-2.76;100.00;103922.84;7397350;19;20139;-58
2023/02/08 08:34:14;;;;;;;57.15;22.60;;;;;;;-2.94;100.00;103920.13;7393316;19;20185;-51
2023/02/08 08:36:43;;;;;;;58.00;23.63;;;;;;;-3.04;100.00;103930.50;7398317;19;20139;-58
2023/02/08 08:39:13;;;;;;;59.28;23.50;;;;;;;-2.96;100.00;103926.56;7395166;19;20142;-53
2023/02/08 08:41:44;;;;;;;56.75;24.27;;;;;;;-2.94;100.00;103921.06;7396430;19;20138;-55
2023/02/08 08:44:14;;;;;;;56.50;24.40;;;;;;;-2.76;100.00;103922.84;7394173;19;20166;-57
2023/02/08 08:46:43;;;;;;;58.13;23.83;;;;;;;-2.73;100.00;103922.38;7396848;19;20143;-55
2023/02/08 08:49:13;;;;;;;63.30;26.00;;;;;;;-2.70;100.00;103917.78;7394687;19;20135;-56
2023/02/08 08:51:42;;;;;;;55.13;24.20;;;;;;;-2.77;100.00;103930.22;7396775;19;20146;-56
2023/02/08 08:54:12;;;;;;;56.53;23.63;;;;;;;-2.87;100.00;103926.31;7392685;19;20170;-57
2023/02/08 08:56:41;;;;;;;59.13;22.58;;;;;;;-2.61;100.00;103914.03;7396652;19;20139;-55
2023/02/08 08:59:14;;;;;;;65.35;23.00;;;;;;;-2.74;100.00;103920.53;7394616;19;20138;-57
2023/02/08 09:01:43;;;;;;;61.35;24.35;;;;;;;-2.51;100.00;103917.94;7395986;19;20139;-56
2023/02/08 09:04:13;;;;;;;57.33;23.73;;;;;;;-2.26;100.00;103916.44;7392802;19;20170;-57
2023/02/08 09:06:42;;;;;;;59.38;23.20;;;;;;;-2.12;100.00;103914.28;7394456;19;20142;-56
2023/02/08 09:09:11;;;;;;;64.18;25.40;;;;;;;-2.12;100.00;103919.31;7390194;19;20142;-55
2023/02/08 09:11:41;;;;;;;64.85;24.80;;;;;;;-1.71;100.00;103925.03;7396798;19;20139;-55
2023/02/08 09:14:13;;;;;;;62.38;24.55;;;;;;;-1.69;100.00;103922.00;7392860;19;20174;-57
2023/02/08 09:16:46;;;;;;;64.95;23.95;;;;;;;-1.89;100.00;103926.78;7395864;19;20149;-57
2023/02/08 09:19:16;;;;;;;54.17;23.65;;;;;;;-1.65;100.00;103925.91;7393712;19;20692;-56
2023/02/08 09:21:46;;;;;;;58.50;23.30;;;;;;;-1.62;100.00;103926.34;7394437;19;20602;-57
2023/02/08 09:24:15;;;;;;;84.70;34.00;;;;;;;-1.52;100.00;103919.38;7391342;19;20171;-57
2023/02/08 09:26:45;;;;;;;55.55;23.27;;;;;;;-1.57;100.00;103920.31;7395187;19;20143;-54
2023/02/08 09:29:17;;;;;;;53.30;22.63;;;;;;;-1.58;100.00;103930.22;7392672;19;20412;-53
2023/02/08 09:31:46;;;;;;;57.90;24.05;;;;;;;-1.61;100.00;103930.72;7393620;19;20146;-56
2023/02/08 09:34:16;;;;;;;55.97;24.00;;;;;;;-1.56;100.00;103936.41;7390301;19;20277;-55
2023/02/08 09:36:45;;;;;;;51.85;23.02;;;;;;;-1.45;100.00;103930.38;7395348;19;20218;-56
2023/02/08 09:39:16;;;;;;;57.50;23.58;;;;;;;-1.36;100.00;103926.59;7393027;19;20135;-54
2023/02/08 09:42:16;;;;;;;54.00;21.73;;;;;;;-1.28;100.00;103931.09;7395018;19;20146;-53
2023/02/08 09:44:57;;;;;;;61.92;24.52;;;;;;;-1.26;100.00;103924.66;7386742;19;20538;-58
2023/02/08 09:47:31;;;;;;;49.90;20.40;;;;;;;-1.10;100.00;103917.59;7394550;19;20138;-56
2023/02/08 09:50:05;;;;;;;51.00;22.00;;;;;;;-1.02;100.00;103915.19;7390631;19;20193;-55
2023/02/08 09:52:38;;;;;;;52.13;21.38;;;;;;;-0.88;100.00;103905.34;7392832;19;20142;-55
2023/02/08 09:55:19;;;;;;;138.63;39.20;;;;;;;-0.68;100.00;103897.97;7389408;19;20198;-54
2023/02/08 09:57:49;;;;;;;49.53;20.67;;;;;;;-0.58;100.00;103897.63;7394854;19;20139;-58
2023/02/08 10:00:25;;;;;;;47.78;20.50;;;;;;;-0.53;100.00;103885.56;7389141;19;20190;-57
2023/02/08 10:02:56;;;;;;;52.95;20.70;;;;;;;-0.20;100.00;103883.25;7394451;19;20130;-56
2023/02/08 10:05:27;;;;;;;53.80;21.88;;;;;;;0.19;100.00;103890.03;7388786;19;20193;-55
2023/02/08 10:07:57;;;;;;;46.60;18.80;;;;;;;-0.17;100.00;103865.91;7393217;19;20139;-53
2023/02/08 10:10:39;;;;;;;63.40;23.70;;;;;;;-0.12;100.00;103836.06;7388358;19;20190;-58
2023/02/08 10:13:20;;;;;;;43.33;18.67;;;;;;;-0.02;100.00;103828.97;7390731;19;20543;-57
2023/02/08 10:16:11;;;;;;;52.10;20.05;;;;;;;0.01;100.00;103786.91;7383328;19;20194;-56
2023/02/08 10:18:46;;;;;;;44.90;19.08;;;;;;;0.18;100.00;103762.16;7388288;19;20879;-58
2023/02/08 10:21:25;;;;;;;53.78;21.55;;;;;;;0.53;100.00;103757.34;7386090;19;20530;-57
2023/02/08 10:24:10;;;;;;;54.03;19.55;;;;;;;0.96;100.00;103782.31;7389533;19;20566;-56
2023/02/08 10:26:47;;;;;;;39.53;17.02;;;;;;;0.98;100.00;103734.22;7389511;19;20182;-54
2023/02/08 10:29:30;;;;;;;42.67;18.80;;;;;;;1.08;100.00;103681.28;7385269;19;20149;-56
2023/02/08 10:32:09;;;;;;;44.03;18.60;;;;;;;0.96;100.00;103604.31;7389188;19;20419;-53
2023/02/08 10:34:44;;;;;;;42.33;17.00;;;;;;;0.94;100.00;103566.00;7384567;19;20531;-55
2023/02/08 10:37:16;;;;;;;43.97;16.33;;;;;;;0.91;100.00;103522.41;7391221;19;20401;-57
2023/02/08 10:39:46;;;;;;;39.97;16.43;;;;;;;0.83;100.00;103454.44;7386051;19;20941;-58
2023/02/08 10:42:17;;;;;;;44.60;17.80;;;;;;;0.70;100.00;103428.19;7391281;19;20433;-58
2023/02/08 10:45:03;;;;;;;38.10;16.60;;;;;;;0.77;100.00;103411.34;7384763;19;20498;-57
2023/02/08 10:47:52;;;;;;;37.90;16.93;;;;;;;0.75;100.00;103399.16;7390175;19;20382;-54
2023/02/08 10:50:24;;;;;;;42.90;18.30;;;;;;;1.00;100.00;103430.16;7386232;19;20740;-56
2023/02/08 10:52:56;;;;;;;46.42;17.38;;;;;;;1.05;100.00;103416.41;7390202;19;20745;-55
2023/02/08 10:55:26;;;;;;;42.53;18.33;;;;;;;1.11;100.00;103408.59;7384046;19;20194;-52
2023/02/08 10:57:59;;;;;;;43.50;18.13;;;;;;;1.20;100.00;103403.03;7390096;19;20407;-54
2023/02/08 11:00:30;;;;;;;39.30;16.57;;;;;;;1.06;100.00;103373.34;7384469;19;20446;-57
2023/02/08 11:03:06;;;;;;;42.33;16.80;;;;;;;0.96;100.00;103364.44;7390062;19;20404;-55
2023/02/08 11:05:37;;;;;;;40.03;16.70;;;;;;;0.97;100.00;103356.06;7384064;19;20450;-52
2023/02/08 11:08:09;;;;;;;46.30;17.73;;;;;;;1.04;100.00;103353.56;7390563;19;20400;-58
2023/02/08 11:10:39;;;;;;;41.80;16.40;;;;;;;0.91;100.00;103329.16;7383957;19;20466;-55
2023/02/08 11:13:17;;;;;;;40.47;15.87;;;;;;;0.77;100.00;103313.88;7389878;19;20410;-55
2023/02/08 11:15:48;;;;;;;51.83;19.60;;;;;;;0.84;100.00;103313.88;7384150;19;20438;-55
2023/02/08 11:18:24;;;;;;;43.53;17.83;;;;;;;0.99;100.00;103307.22;7388649;19;20821;-54
2023/02/08 11:20:57;;;;;;;43.42;16.23;;;;;;;1.03;100.00;103293.25;7385621;19;20807;-53
2023/02/08 11:23:28;;;;;;;36.37;15.03;;;;;;;0.83;100.00;103293.34;7390951;19;20139;-52
2023/02/08 11:26:16;;;;;;;36.53;14.97;;;;;;;0.88;100.00;103294.84;7387855;19;20422;-57